SBIZ

Details ICAO SBIZ (IMP)
Name Prefeito Renato Moreira
Region Brazil
Timezone America/Fortaleza (UTC-3.0)
Plans Departing 17
Arriving 17
Stats Elevation 431 ft / 131 m (AMSL)
Location -5.531290° -47.460048°
Runways 1
Magnetic Variation 21.003° W
Sunrise 2018-05-28 09:13:42 UTC / 2018-05-28 06:13:42 Local
Sunset 2018-05-28 21:03:26 UTC / 2018-05-28 18:03:26 Local
Advertisement - Login to hide

Runways

ID Width Length Bearing (true) Bearing (mag) Surface Threshold Offset Overrun Length
07 148 ft / 45 m 5,932 ft / 1,808 m 53.74° 74.74° Asphalt 0 ft / 0 m 200 ft / 61 m
25 148 ft / 45 m 5,932 ft / 1,808 m 233.74° 254.74° Asphalt 0 ft / 0 m 200 ft / 61 m

Map

Weather


0- 5 10 15 20 25 30 35+ Temperature / ° C

Clouds and Precipitation
Forecast for 2018-05-28 00:00 UTC. Updated 7 hours ago

Ground ~20,000 ft ~40,000 ft Winds

METAR

Not found

TAF

TAF SBIZ 272200Z 2800/2812 00000KT CAVOK TN21/2808Z TX26/2812Z BECMG 2809/2811 17004KT RMK PDY

Frequencies

Tower 125.85 MHz RDO
Warning: Do not use this data for real-world aviation or navigation. No guarantee of current accuracy is given.